createdAt,value
2022-10-18T00:04:36.690Z,88.26
2022-10-18T00:09:39.579Z,88.33
2022-10-18T00:14:42.243Z,88.40
2022-10-18T00:19:46.607Z,88.48
2022-10-18T00:24:49.341Z,88.74
2022-10-18T00:29:55.081Z,88.83
2022-10-18T00:34:57.714Z,88.90
2022-10-18T00:40:00.776Z,88.99
2022-10-18T00:45:16.675Z,89.06
2022-10-18T00:50:21.524Z,89.16
2022-10-18T00:55:31.317Z,89.55
2022-10-18T01:00:38.770Z,89.78
2022-10-18T01:05:45.719Z,90.37
2022-10-18T01:11:06.673Z,90.39
2022-10-18T01:16:17.942Z,90.59
2022-10-18T01:21:45.974Z,90.80
2022-10-18T01:27:11.690Z,90.85
2022-10-18T01:32:19.928Z,91.10
2022-10-18T01:37:23.056Z,91.22
2022-10-18T01:42:26.589Z,91.58
2022-10-18T01:47:29.763Z,91.59
2022-10-18T01:52:33.456Z,91.77
2022-10-18T01:57:41.897Z,91.80
2022-10-18T02:02:55.270Z,91.89
2022-10-18T02:08:23.297Z,92.06
2022-10-18T02:13:32.670Z,92.15
2022-10-18T02:18:42.674Z,92.06
2022-10-18T02:23:46.906Z,92.38
2022-10-18T02:28:49.626Z,92.56
2022-10-18T02:34:04.604Z,92.93
2022-10-18T02:39:14.649Z,93.16
2022-10-18T02:44:17.461Z,93.42
2022-10-18T02:49:20.142Z,93.28
2022-10-18T02:54:24.047Z,93.56
2022-10-18T02:59:26.726Z,93.58
2022-10-18T03:04:29.671Z,93.67
2022-10-18T03:09:32.596Z,93.82
2022-10-18T03:14:35.285Z,94.05
2022-10-18T03:19:38.889Z,94.00
2022-10-18T03:24:41.553Z,94.34
2022-10-18T03:29:44.227Z,94.43
2022-10-18T03:34:46.913Z,94.86
2022-10-18T03:39:49.582Z,95.83
2022-10-18T03:44:52.220Z,96.34
2022-10-18T03:49:57.136Z,96.43
2022-10-18T03:55:00.488Z,96.09
2022-10-18T04:00:04.560Z,95.92
2022-10-18T04:05:08.603Z,95.55
2022-10-18T04:10:11.282Z,95.55
2022-10-18T04:15:14.011Z,95.27
2022-10-18T04:20:16.946Z,95.13
2022-10-18T04:25:19.620Z,95.09
2022-10-18T04:30:22.347Z,94.88
2022-10-18T04:35:26.179Z,94.48
2022-10-18T04:40:28.879Z,94.39
2022-10-18T04:45:31.627Z,94.31
2022-10-18T04:50:34.300Z,94.12
2022-10-18T04:55:37.048Z,93.66
2022-10-18T05:00:40.248Z,93.45
2022-10-18T05:06:00.757Z,93.04
2022-10-18T05:11:05.016Z,92.88
2022-10-18T05:16:07.765Z,92.72
2022-10-18T05:21:10.959Z,92.75
2022-10-18T05:26:13.699Z,92.60
2022-10-18T05:31:16.728Z,92.23
2022-10-18T05:36:19.442Z,92.18
2022-10-18T05:41:22.387Z,91.59
2022-10-18T05:46:25.735Z,91.01
2022-10-18T05:51:28.495Z,91.31
2022-10-18T05:56:31.339Z,91.52
2022-10-18T06:01:34.154Z,91.03
2022-10-18T06:06:40.514Z,90.77
2022-10-18T06:11:44.342Z,90.91
2022-10-18T06:16:47.642Z,90.91
2022-10-18T06:21:58.046Z,90.93
2022-10-18T06:27:22.834Z,90.88
2022-10-18T06:32:46.247Z,90.29
2022-10-18T06:37:58.574Z,89.98
2022-10-18T06:43:19.558Z,89.45
2022-10-18T06:48:25.162Z,89.30
2022-10-18T06:53:30.780Z,89.45
2022-10-18T06:58:34.159Z,89.25
2022-10-18T07:03:37.549Z,89.36
2022-10-18T07:08:40.849Z,89.40
2022-10-18T07:13:43.718Z,88.82
2022-10-18T07:18:51.416Z,87.66
2022-10-18T07:23:54.808Z,87.53
2022-10-18T07:29:15.397Z,87.50
2022-10-18T07:34:18.258Z,87.32
2022-10-18T07:39:21.032Z,87.50
2022-10-18T07:44:26.150Z,87.58
2022-10-18T07:49:28.923Z,87.40
2022-10-18T07:54:32.029Z,87.53
2022-10-18T07:59:34.948Z,86.96
2022-10-18T08:04:37.654Z,86.68
2022-10-18T08:09:40.381Z,86.64
2022-10-18T08:14:43.051Z,86.74
2022-10-18T08:19:53.013Z,86.80
2022-10-18T08:25:09.139Z,87.44
2022-10-18T08:30:12.113Z,87.54
2022-10-18T08:35:15.343Z,87.79
2022-10-18T08:40:18.566Z,87.87
2022-10-18T08:45:37.450Z,87.90
2022-10-18T08:50:45.998Z,88.13
2022-10-18T08:56:16.156Z,87.97
2022-10-18T09:01:52.269Z,88.06
2022-10-18T09:07:24.137Z,88.16
2022-10-18T09:12:52.160Z,88.13
2022-10-18T09:18:13.162Z,88.45
2022-10-18T09:23:21.827Z,88.79
2022-10-18T09:28:43.003Z,89.00
2022-10-18T09:33:58.511Z,89.03
2022-10-18T09:39:28.622Z,88.62
2022-10-18T09:44:31.437Z,87.68
2022-10-18T09:49:44.406Z,87.16
2022-10-18T09:55:03.341Z,87.25
2022-10-18T10:00:16.857Z,88.31
2022-10-18T10:05:20.167Z,88.70
2022-10-18T10:10:28.989Z,88.59
2022-10-18T10:15:37.185Z,88.89
2022-10-18T10:20:51.112Z,89.91
2022-10-18T10:25:57.036Z,89.97
2022-10-18T10:31:33.754Z,89.61
2022-10-18T10:36:55.725Z,89.94
2022-10-18T10:42:01.244Z,90.71
2022-10-18T10:47:06.162Z,90.82
2022-10-18T10:52:28.596Z,91.14
2022-10-18T10:57:32.969Z,91.91
2022-10-18T11:02:36.819Z,92.32
2022-10-18T11:07:46.985Z,92.05
2022-10-18T11:13:30.128Z,92.26
2022-10-18T11:18:38.464Z,91.94
2022-10-18T11:23:43.821Z,91.44
2022-10-18T11:29:10.768Z,90.96
2022-10-18T11:34:16.610Z,91.23
2022-10-18T11:39:41.019Z,91.98
2022-10-18T11:44:59.202Z,92.25
2022-10-18T11:50:31.055Z,92.62
2022-10-18T11:55:49.254Z,92.43
2022-10-18T12:01:29.936Z,92.85
2022-10-18T12:06:39.073Z,92.82
2022-10-18T12:12:06.391Z,92.49
2022-10-18T12:17:49.903Z,92.03
2022-10-18T12:23:04.131Z,92.20
2022-10-18T12:28:26.055Z,92.65
2022-10-18T12:33:35.929Z,92.88
2022-10-18T12:38:43.801Z,92.92
2022-10-18T12:43:53.405Z,92.38
2022-10-18T12:49:04.873Z,92.86
2022-10-18T12:54:12.560Z,93.37
2022-10-18T12:59:15.448Z,93.26
2022-10-18T13:04:33.776Z,93.45
2022-10-18T13:09:41.611Z,93.93
2022-10-18T13:15:24.318Z,93.87
2022-10-18T13:20:44.287Z,93.75
2022-10-18T13:26:05.471Z,93.86
2022-10-18T13:31:38.209Z,93.77
2022-10-18T13:36:42.376Z,93.50
2022-10-18T13:41:47.957Z,93.53
2022-10-18T13:46:51.559Z,93.86
2022-10-18T13:52:06.574Z,93.87
2022-10-18T13:57:27.506Z,94.49
2022-10-18T14:02:51.706Z,94.99
2022-10-18T14:08:10.224Z,95.38
2022-10-18T14:13:23.340Z,95.46
2022-10-18T14:18:33.533Z,95.99
2022-10-18T14:23:44.822Z,96.38
2022-10-18T14:29:06.392Z,96.28
2022-10-18T14:34:15.393Z,96.52
2022-10-18T14:39:26.818Z,96.54
2022-10-18T14:44:34.790Z,96.78
2022-10-18T14:49:44.690Z,96.63
2022-10-18T14:54:47.541Z,96.71
2022-10-18T14:59:58.289Z,97.14
2022-10-18T15:05:16.340Z,97.41
2022-10-18T15:10:27.240Z,97.74
2022-10-18T15:15:32.221Z,97.64
2022-10-18T15:20:39.607Z,97.82
2022-10-18T15:25:42.983Z,98.42
2022-10-18T15:30:46.041Z,99.02
2022-10-18T15:35:49.545Z,99.23
2022-10-18T15:40:52.714Z,98.83
2022-10-18T15:46:05.104Z,99.45
2022-10-18T15:51:26.593Z,99.59
2022-10-18T15:56:37.409Z,99.96
2022-10-18T16:01:44.507Z,99.59
2022-10-18T16:06:47.308Z,100.00
2022-10-18T16:11:56.373Z,100.00
2022-10-18T16:17:02.462Z,100.00
2022-10-18T16:22:07.132Z,100.00
2022-10-18T16:27:10.222Z,100.00
2022-10-18T16:32:12.946Z,99.97
2022-10-18T16:37:15.662Z,99.93
2022-10-18T16:42:18.787Z,99.93
2022-10-18T16:47:21.672Z,99.99
2022-10-18T16:52:24.670Z,99.98
2022-10-18T16:57:27.362Z,100.00
2022-10-18T17:02:30.338Z,100.00
2022-10-18T17:07:33.666Z,100.00
2022-10-18T17:12:36.376Z,100.00
2022-10-18T17:17:39.634Z,100.00
2022-10-18T17:22:42.491Z,100.00
2022-10-18T17:27:46.407Z,100.00
2022-10-18T17:32:49.150Z,100.00
2022-10-18T17:37:53.543Z,100.00
2022-10-18T17:42:56.470Z,100.00
2022-10-18T17:47:59.156Z,100.00
2022-10-18T17:53:03.069Z,100.00
2022-10-18T17:58:06.147Z,100.00
2022-10-18T18:03:09.349Z,100.00
2022-10-18T18:08:12.096Z,100.00
2022-10-18T18:13:17.641Z,100.00
2022-10-18T18:18:22.585Z,100.00
2022-10-18T18:23:25.875Z,100.00
2022-10-18T18:28:29.102Z,100.00
2022-10-18T18:33:33.389Z,100.00
2022-10-18T18:38:38.882Z,100.00
2022-10-18T18:43:49.631Z,100.00
2022-10-18T18:48:52.960Z,100.00
2022-10-18T18:53:55.687Z,100.00
2022-10-18T18:59:01.563Z,100.00
2022-10-18T19:04:06.428Z,100.00
2022-10-18T19:09:26.446Z,100.00
2022-10-18T19:14:30.766Z,100.00
2022-10-18T19:19:34.291Z,100.00
2022-10-18T19:24:37.351Z,100.00
2022-10-18T19:29:41.056Z,100.00
2022-10-18T19:34:44.205Z,99.94
2022-10-18T19:39:47.008Z,100.00
2022-10-18T19:44:49.888Z,99.99
2022-10-18T19:49:53.898Z,99.88
2022-10-18T19:54:56.643Z,99.57
2022-10-18T20:00:00.778Z,99.70
2022-10-18T20:05:04.167Z,99.82
2022-10-18T20:10:07.052Z,99.56
2022-10-18T20:15:10.764Z,99.49
2022-10-18T20:20:13.490Z,99.31
2022-10-18T20:25:16.255Z,99.40
2022-10-18T20:30:18.929Z,99.58
2022-10-18T20:35:26.091Z,99.75
2022-10-18T20:40:28.942Z,99.83
2022-10-18T20:45:31.683Z,99.82
2022-10-18T20:50:34.371Z,100.00
2022-10-18T20:55:38.850Z,100.00
2022-10-18T21:00:41.578Z,100.00
2022-10-18T21:05:44.256Z,100.00
2022-10-18T21:10:46.993Z,100.00
2022-10-18T21:15:57.489Z,100.00
2022-10-18T21:21:14.883Z,100.00
2022-10-18T21:26:27.790Z,100.00
2022-10-18T21:31:35.962Z,100.00
2022-10-18T21:36:39.744Z,100.00
2022-10-18T21:41:43.181Z,100.00
2022-10-18T21:46:46.900Z,100.00
2022-10-18T21:51:49.674Z,100.00
2022-10-18T21:56:52.371Z,100.00
2022-10-18T22:01:55.287Z,100.00
2022-10-18T22:06:58.235Z,100.00
2022-10-18T22:12:00.991Z,100.00
2022-10-18T22:17:04.057Z,100.00
2022-10-18T22:22:06.766Z,100.00
2022-10-18T22:27:09.492Z,99.95
2022-10-18T22:32:12.187Z,99.92
2022-10-18T22:37:14.838Z,99.80
2022-10-18T22:42:17.503Z,99.70
2022-10-18T22:47:20.134Z,99.61
2022-10-18T22:52:22.838Z,99.24
2022-10-18T22:57:25.471Z,99.02
2022-10-18T23:02:28.179Z,99.49
2022-10-18T23:07:30.809Z,99.88
2022-10-18T23:12:33.667Z,100.00
2022-10-18T23:17:37.128Z,100.00
2022-10-18T23:22:40.126Z,100.00
2022-10-18T23:32:50.552Z,100.00
2022-10-18T23:37:53.185Z,100.00
2022-10-18T23:42:55.966Z,100.00
2022-10-18T23:47:58.622Z,100.00
2022-10-18T23:53:01.335Z,100.00
2022-10-18T23:58:04.050Z,100.00
